sensor_id;sensor_type;location;lat;lon;timestamp;P1;durP1;ratioP1;P2;durP2;ratioP2
6955;SDS011;50345;51.136;16.886;2022-08-19T00:00:19;13.33;;;11.97;;
6955;SDS011;50345;51.136;16.886;2022-08-19T00:02:45;12.57;;;11.50;;
6955;SDS011;50345;51.136;16.886;2022-08-19T00:05:12;11.23;;;10.07;;
6955;SDS011;50345;51.136;16.886;2022-08-19T00:07:38;11.33;;;10.33;;
6955;SDS011;50345;51.136;16.886;2022-08-19T00:10:05;11.47;;;10.57;;
6955;SDS011;50345;51.136;16.886;2022-08-19T00:12:32;12.67;;;10.10;;
6955;SDS011;50345;51.136;16.886;2022-08-19T00:14:58;11.63;;;10.20;;
6955;SDS011;50345;51.136;16.886;2022-08-19T00:17:24;11.30;;;10.00;;
6955;SDS011;50345;51.136;16.886;2022-08-19T00:19:51;15.00;;;11.00;;
6955;SDS011;50345;51.136;16.886;2022-08-19T00:22:17;11.63;;;10.50;;
6955;SDS011;50345;51.136;16.886;2022-08-19T00:24:44;10.13;;;9.33;;
6955;SDS011;50345;51.136;16.886;2022-08-19T00:27:10;11.80;;;10.90;;
6955;SDS011;50345;51.136;16.886;2022-08-19T00:29:37;10.80;;;9.77;;
6955;SDS011;50345;51.136;16.886;2022-08-19T00:32:03;12.07;;;10.70;;
6955;SDS011;50345;51.136;16.886;2022-08-19T00:34:29;11.50;;;10.53;;
6955;SDS011;50345;51.136;16.886;2022-08-19T00:36:56;12.67;;;11.50;;
6955;SDS011;50345;51.136;16.886;2022-08-19T00:39:22;11.97;;;10.90;;
6955;SDS011;50345;51.136;16.886;2022-08-19T00:41:48;11.27;;;10.40;;
6955;SDS011;50345;51.136;16.886;2022-08-19T00:44:16;11.60;;;10.53;;
6955;SDS011;50345;51.136;16.886;2022-08-19T00:46:46;12.73;;;11.47;;
6955;SDS011;50345;51.136;16.886;2022-08-19T00:51:39;12.87;;;11.80;;
6955;SDS011;50345;51.136;16.886;2022-08-19T00:54:06;12.27;;;11.17;;
6955;SDS011;50345;51.136;16.886;2022-08-19T00:56:34;12.73;;;11.43;;
6955;SDS011;50345;51.136;16.886;2022-08-19T00:59:00;11.47;;;10.07;;
6955;SDS011;50345;51.136;16.886;2022-08-19T01:01:27;11.33;;;10.20;;
6955;SDS011;50345;51.136;16.886;2022-08-19T01:03:53;11.87;;;10.73;;
6955;SDS011;50345;51.136;16.886;2022-08-19T01:06:19;11.30;;;10.30;;
6955;SDS011;50345;51.136;16.886;2022-08-19T01:08:45;12.37;;;11.43;;
6955;SDS011;50345;51.136;16.886;2022-08-19T01:11:11;12.47;;;11.27;;
6955;SDS011;50345;51.136;16.886;2022-08-19T01:13:38;11.80;;;10.73;;
6955;SDS011;50345;51.136;16.886;2022-08-19T01:16:05;14.57;;;11.53;;
6955;SDS011;50345;51.136;16.886;2022-08-19T01:18:32;11.30;;;10.30;;
6955;SDS011;50345;51.136;16.886;2022-08-19T01:21:02;11.20;;;10.07;;
6955;SDS011;50345;51.136;16.886;2022-08-19T01:23:30;11.83;;;10.73;;
6955;SDS011;50345;51.136;16.886;2022-08-19T01:26:09;12.33;;;11.17;;
6955;SDS011;50345;51.136;16.886;2022-08-19T01:28:35;13.07;;;11.60;;
6955;SDS011;50345;51.136;16.886;2022-08-19T01:31:02;11.43;;;10.63;;
6955;SDS011;50345;51.136;16.886;2022-08-19T01:33:28;16.37;;;11.67;;
6955;SDS011;50345;51.136;16.886;2022-08-19T01:36:03;11.70;;;10.60;;
6955;SDS011;50345;51.136;16.886;2022-08-19T01:38:29;13.30;;;11.13;;
6955;SDS011;50345;51.136;16.886;2022-08-19T01:40:56;11.33;;;10.43;;
6955;SDS011;50345;51.136;16.886;2022-08-19T01:43:23;11.30;;;10.40;;
6955;SDS011;50345;51.136;16.886;2022-08-19T01:45:49;10.80;;;9.90;;
6955;SDS011;50345;51.136;16.886;2022-08-19T01:48:16;14.80;;;10.30;;
6955;SDS011;50345;51.136;16.886;2022-08-19T01:50:42;11.37;;;10.27;;
6955;SDS011;50345;51.136;16.886;2022-08-19T01:53:09;11.57;;;10.67;;
6955;SDS011;50345;51.136;16.886;2022-08-19T01:55:37;10.83;;;10.03;;
6955;SDS011;50345;51.136;16.886;2022-08-19T01:58:03;13.47;;;12.00;;
6955;SDS011;50345;51.136;16.886;2022-08-19T02:00:31;13.40;;;12.30;;
6955;SDS011;50345;51.136;16.886;2022-08-19T02:02:57;12.07;;;11.10;;
6955;SDS011;50345;51.136;16.886;2022-08-19T02:05:24;12.30;;;11.00;;
6955;SDS011;50345;51.136;16.886;2022-08-19T02:07:50;11.63;;;10.63;;
6955;SDS011;50345;51.136;16.886;2022-08-19T02:10:19;11.33;;;10.40;;
6955;SDS011;50345;51.136;16.886;2022-08-19T02:12:46;12.43;;;11.23;;
6955;SDS011;50345;51.136;16.886;2022-08-19T02:15:12;12.80;;;11.50;;
6955;SDS011;50345;51.136;16.886;2022-08-19T02:17:38;12.80;;;11.63;;
6955;SDS011;50345;51.136;16.886;2022-08-19T02:20:05;12.40;;;11.30;;
6955;SDS011;50345;51.136;16.886;2022-08-19T02:22:32;12.13;;;11.13;;
6955;SDS011;50345;51.136;16.886;2022-08-19T02:24:58;11.43;;;10.30;;
6955;SDS011;50345;51.136;16.886;2022-08-19T02:27:24;11.67;;;10.53;;
6955;SDS011;50345;51.136;16.886;2022-08-19T02:29:51;11.47;;;10.27;;
6955;SDS011;50345;51.136;16.886;2022-08-19T02:32:17;12.30;;;11.30;;
6955;SDS011;50345;51.136;16.886;2022-08-19T02:34:44;12.23;;;11.20;;
6955;SDS011;50345;51.136;16.886;2022-08-19T02:37:11;12.43;;;11.17;;
6955;SDS011;50345;51.136;16.886;2022-08-19T02:39:57;11.50;;;10.37;;
6955;SDS011;50345;51.136;16.886;2022-08-19T02:42:23;12.13;;;10.90;;
6955;SDS011;50345;51.136;16.886;2022-08-19T02:44:49;12.00;;;10.80;;
6955;SDS011;50345;51.136;16.886;2022-08-19T02:47:17;12.60;;;11.50;;
6955;SDS011;50345;51.136;16.886;2022-08-19T02:49:43;12.13;;;11.03;;
6955;SDS011;50345;51.136;16.886;2022-08-19T02:52:10;12.57;;;11.53;;
6955;SDS011;50345;51.136;16.886;2022-08-19T02:54:36;12.30;;;11.20;;
6955;SDS011;50345;51.136;16.886;2022-08-19T02:57:03;13.93;;;12.43;;
6955;SDS011;50345;51.136;16.886;2022-08-19T02:59:29;11.77;;;10.87;;
6955;SDS011;50345;51.136;16.886;2022-08-19T03:01:55;12.50;;;11.33;;
6955;SDS011;50345;51.136;16.886;2022-08-19T03:04:22;12.63;;;11.60;;
6955;SDS011;50345;51.136;16.886;2022-08-19T03:06:49;11.57;;;10.37;;
6955;SDS011;50345;51.136;16.886;2022-08-19T03:09:15;12.50;;;11.30;;
6955;SDS011;50345;51.136;16.886;2022-08-19T03:11:41;14.30;;;12.00;;
6955;SDS011;50345;51.136;16.886;2022-08-19T03:14:07;11.23;;;10.23;;
6955;SDS011;50345;51.136;16.886;2022-08-19T03:16:36;13.00;;;11.97;;
6955;SDS011;50345;51.136;16.886;2022-08-19T03:19:05;11.10;;;10.23;;
6955;SDS011;50345;51.136;16.886;2022-08-19T03:21:31;12.07;;;10.77;;
6955;SDS011;50345;51.136;16.886;2022-08-19T03:23:59;12.30;;;11.30;;
6955;SDS011;50345;51.136;16.886;2022-08-19T03:26:25;14.30;;;12.63;;
6955;SDS011;50345;51.136;16.886;2022-08-19T03:28:51;16.90;;;13.53;;
6955;SDS011;50345;51.136;16.886;2022-08-19T03:31:19;13.57;;;12.13;;
6955;SDS011;50345;51.136;16.886;2022-08-19T03:33:47;12.47;;;11.47;;
6955;SDS011;50345;51.136;16.886;2022-08-19T03:36:19;14.03;;;12.63;;
6955;SDS011;50345;51.136;16.886;2022-08-19T03:38:51;12.97;;;11.67;;
6955;SDS011;50345;51.136;16.886;2022-08-19T03:41:20;16.57;;;12.20;;
6955;SDS011;50345;51.136;16.886;2022-08-19T03:43:46;14.23;;;12.83;;
6955;SDS011;50345;51.136;16.886;2022-08-19T03:46:15;16.50;;;13.00;;
6955;SDS011;50345;51.136;16.886;2022-08-19T03:48:42;12.83;;;11.53;;
6955;SDS011;50345;51.136;16.886;2022-08-19T03:51:15;14.73;;;12.80;;
6955;SDS011;50345;51.136;16.886;2022-08-19T03:53:41;13.53;;;12.33;;
6955;SDS011;50345;51.136;16.886;2022-08-19T03:56:08;16.90;;;11.77;;
6955;SDS011;50345;51.136;16.886;2022-08-19T03:58:34;14.53;;;13.30;;
6955;SDS011;50345;51.136;16.886;2022-08-19T04:01:06;14.93;;;12.43;;
6955;SDS011;50345;51.136;16.886;2022-08-19T04:03:32;16.30;;;11.80;;
6955;SDS011;50345;51.136;16.886;2022-08-19T04:06:08;14.10;;;12.60;;
6955;SDS011;50345;51.136;16.886;2022-08-19T04:08:34;13.63;;;12.53;;
6955;SDS011;50345;51.136;16.886;2022-08-19T04:11:00;15.80;;;14.27;;
6955;SDS011;50345;51.136;16.886;2022-08-19T04:13:26;15.17;;;13.50;;
6955;SDS011;50345;51.136;16.886;2022-08-19T04:15:52;15.73;;;14.20;;
6955;SDS011;50345;51.136;16.886;2022-08-19T04:18:18;21.80;;;14.50;;
6955;SDS011;50345;51.136;16.886;2022-08-19T04:20:45;15.47;;;13.70;;
6955;SDS011;50345;51.136;16.886;2022-08-19T04:23:13;17.90;;;13.17;;
6955;SDS011;50345;51.136;16.886;2022-08-19T04:25:40;13.67;;;12.43;;
6955;SDS011;50345;51.136;16.886;2022-08-19T04:28:06;16.53;;;13.37;;
6955;SDS011;50345;51.136;16.886;2022-08-19T04:30:44;16.00;;;12.90;;
6955;SDS011;50345;51.136;16.886;2022-08-19T04:33:11;15.70;;;14.10;;
6955;SDS011;50345;51.136;16.886;2022-08-19T04:35:39;16.00;;;14.30;;
6955;SDS011;50345;51.136;16.886;2022-08-19T04:38:05;15.37;;;13.77;;
6955;SDS011;50345;51.136;16.886;2022-08-19T04:40:32;14.60;;;13.13;;
6955;SDS011;50345;51.136;16.886;2022-08-19T04:43:16;14.63;;;13.43;;
6955;SDS011;50345;51.136;16.886;2022-08-19T04:45:43;23.17;;;14.30;;
6955;SDS011;50345;51.136;16.886;2022-08-19T04:48:10;16.00;;;14.30;;
6955;SDS011;50345;51.136;16.886;2022-08-19T04:50:36;14.17;;;12.93;;
6955;SDS011;50345;51.136;16.886;2022-08-19T04:53:05;15.30;;;13.97;;
6955;SDS011;50345;51.136;16.886;2022-08-19T04:55:31;15.40;;;13.87;;
6955;SDS011;50345;51.136;16.886;2022-08-19T04:57:57;15.33;;;13.93;;
6955;SDS011;50345;51.136;16.886;2022-08-19T05:00:24;14.90;;;13.30;;
6955;SDS011;50345;51.136;16.886;2022-08-19T05:02:50;16.93;;;14.97;;
6955;SDS011;50345;51.136;16.886;2022-08-19T05:05:16;16.57;;;14.93;;
6955;SDS011;50345;51.136;16.886;2022-08-19T05:07:42;15.20;;;13.93;;
6955;SDS011;50345;51.136;16.886;2022-08-19T05:10:09;15.30;;;13.90;;
6955;SDS011;50345;51.136;16.886;2022-08-19T05:12:35;15.80;;;13.93;;
6955;SDS011;50345;51.136;16.886;2022-08-19T05:15:02;15.83;;;14.23;;
6955;SDS011;50345;51.136;16.886;2022-08-19T05:17:28;17.73;;;16.13;;
6955;SDS011;50345;51.136;16.886;2022-08-19T05:19:54;17.27;;;15.67;;
6955;SDS011;50345;51.136;16.886;2022-08-19T05:22:40;15.50;;;14.00;;
6955;SDS011;50345;51.136;16.886;2022-08-19T05:25:07;17.70;;;15.57;;
6955;SDS011;50345;51.136;16.886;2022-08-19T05:27:34;16.33;;;14.73;;
6955;SDS011;50345;51.136;16.886;2022-08-19T05:30:00;15.37;;;13.97;;
6955;SDS011;50345;51.136;16.886;2022-08-19T05:32:26;16.93;;;15.33;;
6955;SDS011;50345;51.136;16.886;2022-08-19T05:34:52;13.80;;;12.50;;
6955;SDS011;50345;51.136;16.886;2022-08-19T05:37:18;16.20;;;14.90;;
6955;SDS011;50345;51.136;16.886;2022-08-19T05:39:44;15.57;;;14.27;;
6955;SDS011;50345;51.136;16.886;2022-08-19T05:42:11;16.67;;;15.03;;
6955;SDS011;50345;51.136;16.886;2022-08-19T05:44:39;16.17;;;14.67;;
6955;SDS011;50345;51.136;16.886;2022-08-19T05:47:08;17.07;;;15.50;;
6955;SDS011;50345;51.136;16.886;2022-08-19T05:49:34;16.27;;;14.80;;
6955;SDS011;50345;51.136;16.886;2022-08-19T05:52:05;14.13;;;12.93;;
6955;SDS011;50345;51.136;16.886;2022-08-19T05:54:31;16.57;;;15.03;;
6955;SDS011;50345;51.136;16.886;2022-08-19T05:56:57;20.93;;;15.80;;
6955;SDS011;50345;51.136;16.886;2022-08-19T05:59:23;18.43;;;16.47;;
6955;SDS011;50345;51.136;16.886;2022-08-19T06:01:50;17.40;;;15.60;;
6955;SDS011;50345;51.136;16.886;2022-08-19T06:04:17;19.07;;;15.60;;
6955;SDS011;50345;51.136;16.886;2022-08-19T06:06:44;16.97;;;15.30;;
6955;SDS011;50345;51.136;16.886;2022-08-19T06:09:11;18.20;;;15.67;;
6955;SDS011;50345;51.136;16.886;2022-08-19T06:11:40;18.10;;;16.17;;
6955;SDS011;50345;51.136;16.886;2022-08-19T06:14:09;17.00;;;15.40;;
6955;SDS011;50345;51.136;16.886;2022-08-19T06:16:35;17.27;;;15.60;;
6955;SDS011;50345;51.136;16.886;2022-08-19T06:19:04;19.60;;;15.50;;
6955;SDS011;50345;51.136;16.886;2022-08-19T06:21:31;18.60;;;16.23;;
6955;SDS011;50345;51.136;16.886;2022-08-19T06:23:58;18.73;;;16.90;;
6955;SDS011;50345;51.136;16.886;2022-08-19T06:26:24;18.10;;;16.37;;
6955;SDS011;50345;51.136;16.886;2022-08-19T06:28:51;17.07;;;14.90;;
6955;SDS011;50345;51.136;16.886;2022-08-19T06:31:19;18.07;;;16.20;;
6955;SDS011;50345;51.136;16.886;2022-08-19T06:33:46;15.87;;;14.03;;
6955;SDS011;50345;51.136;16.886;2022-08-19T06:36:55;15.87;;;14.23;;
6955;SDS011;50345;51.136;16.886;2022-08-19T06:39:07;17.40;;;14.80;;
6955;SDS011;50345;51.136;16.886;2022-08-19T06:41:37;15.97;;;14.60;;
6955;SDS011;50345;51.136;16.886;2022-08-19T06:44:03;16.47;;;15.03;;
6955;SDS011;50345;51.136;16.886;2022-08-19T06:46:29;15.70;;;14.30;;
6955;SDS011;50345;51.136;16.886;2022-08-19T06:48:56;17.20;;;15.50;;
6955;SDS011;50345;51.136;16.886;2022-08-19T06:51:22;15.57;;;14.03;;
6955;SDS011;50345;51.136;16.886;2022-08-19T06:53:49;16.63;;;15.03;;
6955;SDS011;50345;51.136;16.886;2022-08-19T06:56:16;16.23;;;14.53;;
6955;SDS011;50345;51.136;16.886;2022-08-19T06:58:43;15.93;;;14.33;;
6955;SDS011;50345;51.136;16.886;2022-08-19T07:01:09;16.17;;;14.50;;
6955;SDS011;50345;51.136;16.886;2022-08-19T07:03:36;16.27;;;14.80;;
6955;SDS011;50345;51.136;16.886;2022-08-19T07:06:04;20.00;;;14.90;;
6955;SDS011;50345;51.136;16.886;2022-08-19T07:08:30;17.63;;;16.00;;
6955;SDS011;50345;51.136;16.886;2022-08-19T07:10:56;16.23;;;14.60;;
6955;SDS011;50345;51.136;16.886;2022-08-19T07:13:22;14.73;;;13.57;;
6955;SDS011;50345;51.136;16.886;2022-08-19T07:15:48;15.13;;;13.77;;
6955;SDS011;50345;51.136;16.886;2022-08-19T07:18:16;14.27;;;12.60;;
6955;SDS011;50345;51.136;16.886;2022-08-19T07:20:42;14.33;;;13.13;;
6955;SDS011;50345;51.136;16.886;2022-08-19T07:23:08;15.67;;;14.10;;
6955;SDS011;50345;51.136;16.886;2022-08-19T07:25:35;14.70;;;13.00;;
6955;SDS011;50345;51.136;16.886;2022-08-19T07:28:02;15.40;;;13.80;;
6955;SDS011;50345;51.136;16.886;2022-08-19T07:30:28;18.43;;;13.20;;
6955;SDS011;50345;51.136;16.886;2022-08-19T07:32:54;13.37;;;12.20;;
6955;SDS011;50345;51.136;16.886;2022-08-19T07:35:21;12.67;;;10.60;;
6955;SDS011;50345;51.136;16.886;2022-08-19T07:37:47;13.47;;;12.10;;
6955;SDS011;50345;51.136;16.886;2022-08-19T07:40:13;11.37;;;10.47;;
6955;SDS011;50345;51.136;16.886;2022-08-19T07:42:39;13.80;;;11.40;;
6955;SDS011;50345;51.136;16.886;2022-08-19T07:45:05;11.80;;;10.90;;
6955;SDS011;50345;51.136;16.886;2022-08-19T07:47:32;12.27;;;11.00;;
6955;SDS011;50345;51.136;16.886;2022-08-19T07:49:59;12.03;;;11.03;;
6955;SDS011;50345;51.136;16.886;2022-08-19T07:52:25;12.53;;;11.13;;
6955;SDS011;50345;51.136;16.886;2022-08-19T07:54:51;11.43;;;10.00;;
6955;SDS011;50345;51.136;16.886;2022-08-19T07:57:17;9.47;;;8.30;;
6955;SDS011;50345;51.136;16.886;2022-08-19T07:59:43;10.87;;;9.77;;
6955;SDS011;50345;51.136;16.886;2022-08-19T08:02:10;11.40;;;10.40;;
6955;SDS011;50345;51.136;16.886;2022-08-19T08:04:36;10.33;;;9.33;;
6955;SDS011;50345;51.136;16.886;2022-08-19T08:07:20;10.17;;;9.20;;
6955;SDS011;50345;51.136;16.886;2022-08-19T08:10:06;12.73;;;9.33;;
6955;SDS011;50345;51.136;16.886;2022-08-19T08:12:34;14.03;;;9.27;;
6955;SDS011;50345;51.136;16.886;2022-08-19T08:15:07;10.13;;;9.23;;
6955;SDS011;50345;51.136;16.886;2022-08-19T08:17:33;10.57;;;9.47;;
6955;SDS011;50345;51.136;16.886;2022-08-19T08:20:00;13.87;;;9.97;;
6955;SDS011;50345;51.136;16.886;2022-08-19T08:22:27;10.20;;;9.30;;
6955;SDS011;50345;51.136;16.886;2022-08-19T08:25:17;11.20;;;10.00;;
6955;SDS011;50345;51.136;16.886;2022-08-19T08:27:44;11.30;;;10.13;;
6955;SDS011;50345;51.136;16.886;2022-08-19T08:30:13;9.67;;;8.60;;
6955;SDS011;50345;51.136;16.886;2022-08-19T08:32:39;11.70;;;9.90;;
6955;SDS011;50345;51.136;16.886;2022-08-19T08:35:07;17.43;;;10.00;;
6955;SDS011;50345;51.136;16.886;2022-08-19T08:37:33;12.87;;;11.23;;
6955;SDS011;50345;51.136;16.886;2022-08-19T08:40:02;11.00;;;9.97;;
6955;SDS011;50345;51.136;16.886;2022-08-19T08:42:32;11.03;;;10.00;;
6955;SDS011;50345;51.136;16.886;2022-08-19T08:45:04;10.83;;;10.03;;
6955;SDS011;50345;51.136;16.886;2022-08-19T08:47:33;9.87;;;8.83;;
6955;SDS011;50345;51.136;16.886;2022-08-19T08:50:16;10.60;;;9.57;;
6955;SDS011;50345;51.136;16.886;2022-08-19T08:52:44;10.20;;;9.30;;
6955;SDS011;50345;51.136;16.886;2022-08-19T08:55:12;10.03;;;9.23;;
6955;SDS011;50345;51.136;16.886;2022-08-19T08:57:44;8.57;;;7.97;;
6955;SDS011;50345;51.136;16.886;2022-08-19T09:00:30;10.43;;;9.60;;
6955;SDS011;50345;51.136;16.886;2022-08-19T09:02:57;10.50;;;8.80;;
6955;SDS011;50345;51.136;16.886;2022-08-19T09:05:23;9.47;;;8.70;;
6955;SDS011;50345;51.136;16.886;2022-08-19T09:10:22;13.77;;;8.10;;
6955;SDS011;50345;51.136;16.886;2022-08-19T09:13:08;11.87;;;10.87;;
6955;SDS011;50345;51.136;16.886;2022-08-19T09:15:42;11.37;;;10.47;;
6955;SDS011;50345;51.136;16.886;2022-08-19T09:18:09;12.83;;;11.53;;
6955;SDS011;50345;51.136;16.886;2022-08-19T09:20:36;12.87;;;11.60;;
6955;SDS011;50345;51.136;16.886;2022-08-19T09:23:02;16.10;;;13.37;;
6955;SDS011;50345;51.136;16.886;2022-08-19T09:25:29;14.60;;;13.30;;
6955;SDS011;50345;51.136;16.886;2022-08-19T09:27:56;15.20;;;13.07;;
6955;SDS011;50345;51.136;16.886;2022-08-19T09:30:27;17.33;;;13.07;;
6955;SDS011;50345;51.136;16.886;2022-08-19T09:32:54;15.07;;;13.57;;
6955;SDS011;50345;51.136;16.886;2022-08-19T09:35:21;15.67;;;14.03;;
6955;SDS011;50345;51.136;16.886;2022-08-19T09:37:47;19.80;;;18.10;;
6955;SDS011;50345;51.136;16.886;2022-08-19T09:40:14;17.53;;;15.77;;
6955;SDS011;50345;51.136;16.886;2022-08-19T09:42:40;18.97;;;17.13;;
6955;SDS011;50345;51.136;16.886;2022-08-19T09:45:08;21.70;;;18.23;;
6955;SDS011;50345;51.136;16.886;2022-08-19T09:47:34;18.50;;;16.33;;
6955;SDS011;50345;51.136;16.886;2022-08-19T09:50:03;20.70;;;17.27;;
6955;SDS011;50345;51.136;16.886;2022-08-19T09:52:30;17.10;;;15.43;;
6955;SDS011;50345;51.136;16.886;2022-08-19T09:54:56;18.67;;;15.80;;
6955;SDS011;50345;51.136;16.886;2022-08-19T09:57:22;18.10;;;16.50;;
6955;SDS011;50345;51.136;16.886;2022-08-19T09:59:48;16.60;;;15.20;;
6955;SDS011;50345;51.136;16.886;2022-08-19T10:02:14;18.37;;;16.17;;
6955;SDS011;50345;51.136;16.886;2022-08-19T10:04:40;17.03;;;13.93;;
6955;SDS011;50345;51.136;16.886;2022-08-19T10:07:25;15.80;;;14.20;;
6955;SDS011;50345;51.136;16.886;2022-08-19T10:09:51;15.97;;;14.40;;
6955;SDS011;50345;51.136;16.886;2022-08-19T10:12:17;14.93;;;13.73;;
6955;SDS011;50345;51.136;16.886;2022-08-19T10:14:43;14.50;;;12.77;;
6955;SDS011;50345;51.136;16.886;2022-08-19T10:17:10;17.70;;;13.17;;
6955;SDS011;50345;51.136;16.886;2022-08-19T10:19:36;13.87;;;10.90;;
6955;SDS011;50345;51.136;16.886;2022-08-19T10:22:04;13.20;;;12.30;;
6955;SDS011;50345;51.136;16.886;2022-08-19T10:24:30;13.30;;;11.47;;
6955;SDS011;50345;51.136;16.886;2022-08-19T10:26:58;12.17;;;10.93;;
6955;SDS011;50345;51.136;16.886;2022-08-19T10:29:25;12.57;;;11.37;;
6955;SDS011;50345;51.136;16.886;2022-08-19T10:31:53;13.07;;;11.97;;
6955;SDS011;50345;51.136;16.886;2022-08-19T10:34:19;10.80;;;9.83;;
6955;SDS011;50345;51.136;16.886;2022-08-19T10:36:45;17.60;;;11.17;;
6955;SDS011;50345;51.136;16.886;2022-08-19T10:39:11;13.13;;;11.50;;
6955;SDS011;50345;51.136;16.886;2022-08-19T10:41:38;13.33;;;12.00;;
6955;SDS011;50345;51.136;16.886;2022-08-19T10:44:05;12.27;;;10.93;;
6955;SDS011;50345;51.136;16.886;2022-08-19T10:46:33;11.40;;;10.50;;
6955;SDS011;50345;51.136;16.886;2022-08-19T10:49:00;12.70;;;11.70;;
6955;SDS011;50345;51.136;16.886;2022-08-19T10:51:26;12.30;;;11.10;;
6955;SDS011;50345;51.136;16.886;2022-08-19T10:54:11;12.10;;;10.80;;
6955;SDS011;50345;51.136;16.886;2022-08-19T10:56:40;11.87;;;10.90;;
6955;SDS011;50345;51.136;16.886;2022-08-19T10:59:23;11.10;;;10.13;;
6955;SDS011;50345;51.136;16.886;2022-08-19T11:01:52;9.90;;;9.20;;
6955;SDS011;50345;51.136;16.886;2022-08-19T11:04:19;11.30;;;10.30;;
6955;SDS011;50345;51.136;16.886;2022-08-19T11:06:45;11.57;;;10.30;;
6955;SDS011;50345;51.136;16.886;2022-08-19T11:09:14;10.50;;;9.50;;
6955;SDS011;50345;51.136;16.886;2022-08-19T11:11:41;11.00;;;10.20;;
6955;SDS011;50345;51.136;16.886;2022-08-19T11:14:07;10.83;;;9.73;;
6955;SDS011;50345;51.136;16.886;2022-08-19T11:16:34;9.87;;;9.17;;
6955;SDS011;50345;51.136;16.886;2022-08-19T11:19:01;10.00;;;9.00;;
6955;SDS011;50345;51.136;16.886;2022-08-19T11:21:29;9.57;;;8.80;;
6955;SDS011;50345;51.136;16.886;2022-08-19T11:23:57;8.50;;;7.57;;
6955;SDS011;50345;51.136;16.886;2022-08-19T11:26:23;9.00;;;8.10;;
6955;SDS011;50345;51.136;16.886;2022-08-19T11:28:50;14.47;;;7.30;;
6955;SDS011;50345;51.136;16.886;2022-08-19T11:31:19;7.90;;;6.73;;
6955;SDS011;50345;51.136;16.886;2022-08-19T11:33:46;7.70;;;7.00;;
6955;SDS011;50345;51.136;16.886;2022-08-19T11:36:15;6.97;;;6.37;;
6955;SDS011;50345;51.136;16.886;2022-08-19T11:38:41;6.37;;;5.33;;
6955;SDS011;50345;51.136;16.886;2022-08-19T11:41:07;6.20;;;4.40;;
6955;SDS011;50345;51.136;16.886;2022-08-19T11:43:34;6.37;;;5.77;;
6955;SDS011;50345;51.136;16.886;2022-08-19T11:46:03;5.57;;;5.17;;
6955;SDS011;50345;51.136;16.886;2022-08-19T11:48:33;5.70;;;5.30;;
6955;SDS011;50345;51.136;16.886;2022-08-19T11:51:02;5.27;;;4.87;;
6955;SDS011;50345;51.136;16.886;2022-08-19T11:53:30;5.67;;;5.27;;
6955;SDS011;50345;51.136;16.886;2022-08-19T11:55:56;5.57;;;5.17;;
6955;SDS011;50345;51.136;16.886;2022-08-19T11:58:22;7.30;;;5.57;;
6955;SDS011;50345;51.136;16.886;2022-08-19T12:00:49;5.47;;;5.07;;
6955;SDS011;50345;51.136;16.886;2022-08-19T12:03:15;5.17;;;4.67;;
6955;SDS011;50345;51.136;16.886;2022-08-19T12:05:42;4.77;;;4.40;;
6955;SDS011;50345;51.136;16.886;2022-08-19T12:08:08;5.60;;;5.20;;
6955;SDS011;50345;51.136;16.886;2022-08-19T12:10:34;5.13;;;4.73;;
6955;SDS011;50345;51.136;16.886;2022-08-19T12:13:01;6.03;;;5.60;;
6955;SDS011;50345;51.136;16.886;2022-08-19T12:15:27;6.30;;;5.80;;
6955;SDS011;50345;51.136;16.886;2022-08-19T12:17:54;5.50;;;4.87;;
6955;SDS011;50345;51.136;16.886;2022-08-19T12:20:22;5.40;;;4.73;;
6955;SDS011;50345;51.136;16.886;2022-08-19T12:22:48;5.60;;;4.20;;
6955;SDS011;50345;51.136;16.886;2022-08-19T12:25:14;5.30;;;4.90;;
6955;SDS011;50345;51.136;16.886;2022-08-19T12:27:40;4.77;;;4.47;;
6955;SDS011;50345;51.136;16.886;2022-08-19T12:30:07;5.83;;;5.33;;
6955;SDS011;50345;51.136;16.886;2022-08-19T12:32:34;4.60;;;4.13;;
6955;SDS011;50345;51.136;16.886;2022-08-19T12:35:00;5.40;;;5.00;;
6955;SDS011;50345;51.136;16.886;2022-08-19T12:37:26;6.17;;;5.00;;
6955;SDS011;50345;51.136;16.886;2022-08-19T12:39:52;4.63;;;4.10;;
6955;SDS011;50345;51.136;16.886;2022-08-19T12:42:18;4.57;;;4.20;;
6955;SDS011;50345;51.136;16.886;2022-08-19T12:44:44;4.60;;;4.30;;
6955;SDS011;50345;51.136;16.886;2022-08-19T12:47:10;4.37;;;3.87;;
6955;SDS011;50345;51.136;16.886;2022-08-19T12:49:38;5.60;;;4.00;;
6955;SDS011;50345;51.136;16.886;2022-08-19T12:52:06;6.00;;;4.23;;
6955;SDS011;50345;51.136;16.886;2022-08-19T12:54:33;5.47;;;4.97;;
6955;SDS011;50345;51.136;16.886;2022-08-19T12:57:00;3.70;;;3.50;;
6955;SDS011;50345;51.136;16.886;2022-08-19T12:59:29;4.47;;;4.17;;
6955;SDS011;50345;51.136;16.886;2022-08-19T13:01:55;3.70;;;3.40;;
6955;SDS011;50345;51.136;16.886;2022-08-19T13:04:20;5.13;;;3.97;;
6955;SDS011;50345;51.136;16.886;2022-08-19T13:06:46;9.67;;;4.23;;
6955;SDS011;50345;51.136;16.886;2022-08-19T13:09:11;4.00;;;3.80;;
6955;SDS011;50345;51.136;16.886;2022-08-19T13:11:37;4.47;;;4.17;;
6955;SDS011;50345;51.136;16.886;2022-08-19T13:14:03;4.43;;;4.13;;
6955;SDS011;50345;51.136;16.886;2022-08-19T13:16:29;4.83;;;4.30;;
6955;SDS011;50345;51.136;16.886;2022-08-19T13:18:55;6.17;;;5.13;;
6955;SDS011;50345;51.136;16.886;2022-08-19T13:21:23;7.07;;;4.90;;
6955;SDS011;50345;51.136;16.886;2022-08-19T13:23:52;4.50;;;4.20;;
6955;SDS011;50345;51.136;16.886;2022-08-19T13:26:19;5.30;;;4.80;;
6955;SDS011;50345;51.136;16.886;2022-08-19T13:28:45;5.07;;;4.57;;
6955;SDS011;50345;51.136;16.886;2022-08-19T13:31:31;5.23;;;4.83;;
6955;SDS011;50345;51.136;16.886;2022-08-19T13:34:18;5.77;;;5.00;;
6955;SDS011;50345;51.136;16.886;2022-08-19T13:36:45;5.23;;;4.83;;
6955;SDS011;50345;51.136;16.886;2022-08-19T13:39:11;6.00;;;5.50;;
6955;SDS011;50345;51.136;16.886;2022-08-19T13:41:37;4.93;;;4.63;;
6955;SDS011;50345;51.136;16.886;2022-08-19T13:44:03;9.57;;;4.97;;
6955;SDS011;50345;51.136;16.886;2022-08-19T13:46:31;7.00;;;4.60;;
6955;SDS011;50345;51.136;16.886;2022-08-19T13:48:57;6.10;;;5.43;;
6955;SDS011;50345;51.136;16.886;2022-08-19T13:51:23;4.87;;;4.53;;
6955;SDS011;50345;51.136;16.886;2022-08-19T13:53:49;7.03;;;5.27;;
6955;SDS011;50345;51.136;16.886;2022-08-19T13:56:16;4.90;;;4.50;;
6955;SDS011;50345;51.136;16.886;2022-08-19T13:58:44;5.90;;;5.20;;
6955;SDS011;50345;51.136;16.886;2022-08-19T14:01:10;5.43;;;4.90;;
6955;SDS011;50345;51.136;16.886;2022-08-19T14:03:36;7.20;;;5.80;;
6955;SDS011;50345;51.136;16.886;2022-08-19T14:06:02;6.30;;;5.70;;
6955;SDS011;50345;51.136;16.886;2022-08-19T14:08:28;6.70;;;5.00;;
6955;SDS011;50345;51.136;16.886;2022-08-19T14:10:57;6.37;;;5.23;;
6955;SDS011;50345;51.136;16.886;2022-08-19T14:13:23;6.63;;;6.03;;
6955;SDS011;50345;51.136;16.886;2022-08-19T14:15:49;6.87;;;6.20;;
6955;SDS011;50345;51.136;16.886;2022-08-19T14:18:16;6.10;;;5.60;;
6955;SDS011;50345;51.136;16.886;2022-08-19T14:20:42;7.00;;;6.50;;
6955;SDS011;50345;51.136;16.886;2022-08-19T14:23:09;6.90;;;6.20;;
6955;SDS011;50345;51.136;16.886;2022-08-19T14:25:37;8.27;;;7.30;;
6955;SDS011;50345;51.136;16.886;2022-08-19T14:28:03;8.70;;;8.00;;
6955;SDS011;50345;51.136;16.886;2022-08-19T14:30:30;8.90;;;8.03;;
6955;SDS011;50345;51.136;16.886;2022-08-19T14:32:57;11.07;;;9.73;;
6955;SDS011;50345;51.136;16.886;2022-08-19T14:35:23;9.07;;;8.37;;